Time,TemperatureF,DewpointF,PressureIn,WindDirection,WindDirectionDegrees,WindSpeedMPH,WindSpeedGustMPH,Humidity,HourlyPrecipIn,Conditions,Clouds,dailyrainin,SoftwareType,DateUTC
2013-01-02 07:40:00,62.3,61.7,30.03,SSE,149,3.4,4.0,98,0.00,CLR,,0.00,WeatherDisplay:10.37,2013-01-02 12:40:00,
2013-01-02 07:45:00,62.4,61.8,30.03,SSW,203,1.5,3.5,98,0.00,CLR,,0.00,WeatherDisplay:10.37,2013-01-02 12:45:00,
2013-01-02 07:50:00,62.6,62.0,30.03,SSE,148,2.3,3.5,98,0.00,CLR,,0.00,WeatherDisplay:10.37,2013-01-02 12:50:00,
2013-01-02 07:55:00,62.7,62.1,30.03,SSE,155,2.0,3.5,98,0.00,CLR,,0.00,WeatherDisplay:10.37,2013-01-02 12:55:00,
2013-01-02 08:00:00,62.9,62.3,30.04,WSW,250,0.8,2.3,98,0.00,CLR,,0.00,WeatherDisplay:10.37,2013-01-02 13:00:00,
2013-01-02 08:05:00,63.0,62.4,30.04,SW,226,0.1,1.1,98,0.00,CLR,,0.00,WeatherDisplay:10.37,2013-01-02 13:05:00,
2013-01-02 08:10:00,63.1,62.5,30.04,SSE,150,1.7,2.3,98,0.00,CLR,,0.00,WeatherDisplay:10.37,2013-01-02 13:10:00,
2013-01-02 08:15:00,63.3,62.7,30.04,SSE,165,1.1,2.3,98,0.00,CLR,,0.00,WeatherDisplay:10.37,2013-01-02 13:15:00,
2013-01-02 08:20:00,63.5,62.9,30.04,SSE,165,1.3,2.0,98,0.00,CLR,,0.00,WeatherDisplay:10.37,2013-01-02 13:20:00,
2013-01-02 08:25:00,63.8,63.2,30.04,South,172,2.2,2.3,98,0.00,CLR,,0.00,WeatherDisplay:10.37,2013-01-02 13:25:00,
2013-01-02 08:30:00,64.1,63.5,30.05,SSE,156,2.3,3.5,98,0.00,CLR,,0.00,WeatherDisplay:10.37,2013-01-02 13:30:00,
2013-01-02 08:35:00,64.4,63.8,30.04,SE,143,1.9,3.5,98,0.00,CLR,,0.00,WeatherDisplay:10.37,2013-01-02 13:35:00,
2013-01-02 08:40:00,64.7,64.1,30.05,SSE,156,1.6,3.5,98,0.00,CLR,,0.00,WeatherDisplay:10.37,2013-01-02 13:40:00,
2013-01-02 08:45:00,64.9,64.3,30.05,SSE,160,0.8,2.3,98,0.00,CLR,,0.00,WeatherDisplay:10.37,2013-01-02 13:45:00,
2013-01-02 08:50:00,65.2,64.6,30.05,South,186,0.3,2.3,98,0.00,CLR,,0.00,WeatherDisplay:10.37,2013-01-02 13:50:00,
2013-01-02 08:55:00,65.6,65.0,30.05,SSE,151,2.1,2.3,98,0.00,CLR,,0.00,WeatherDisplay:10.37,2013-01-02 13:55:00,
2013-01-02 09:00:00,65.8,64.9,30.05,SW,222,0.5,3.5,97,0.00,CLR,,0.00,WeatherDisplay:10.37,2013-01-02 14:00:00,
2013-01-02 09:05:00,66.1,65.2,30.05,SSW,201,2.9,3.5,97,0.00,CLR,,0.00,WeatherDisplay:10.37,2013-01-02 14:05:00,
2013-01-02 09:10:00,66.5,65.6,30.05,South,176,4.1,4.6,97,0.00,CLR,,0.00,WeatherDisplay:10.37,2013-01-02 14:10:00,
2013-01-02 09:15:00,66.8,65.9,30.05,South,173,3.5,4.6,97,0.00,CLR,,0.00,WeatherDisplay:10.37,2013-01-02 14:15:00,
2013-01-02 09:20:00,67.1,65.9,30.05,SSE,150,2.2,5.8,96,0.00,CLR,,0.00,WeatherDisplay:10.37,2013-01-02 14:20:00,
2013-01-02 09:25:00,67.4,66.2,30.06,SW,228,2.6,4.6,96,0.00,CLR,,0.00,WeatherDisplay:10.37,2013-01-02 14:25:00,
2013-01-02 09:30:00,67.6,66.4,30.05,SSE,149,3.0,5.8,96,0.00,CLR,,0.00,WeatherDisplay:10.37,2013-01-02 14:30:00,
2013-01-02 09:35:00,68.0,66.5,30.05,South,173,1.6,2.3,95,0.00,CLR,,0.00,WeatherDisplay:10.37,2013-01-02 14:35:00,
2013-01-02 09:40:00,68.3,66.8,30.05,SSE,151,4.9,6.9,95,0.00,CLR,,0.00,WeatherDisplay:10.37,2013-01-02 14:40:00,
2013-01-02 09:45:00,68.5,66.7,30.06,SSW,193,3.7,9.2,94,0.00,CLR,,0.00,WeatherDisplay:10.37,2013-01-02 14:45:00,
2013-01-02 09:50:00,68.8,66.7,30.06,SSE,160,4.6,6.0,93,0.00,CLR,,0.00,WeatherDisplay:10.37,2013-01-02 14:50:00,
2013-01-02 09:55:00,69.1,67.0,30.06,SSE,148,3.3,6.9,93,0.00,CLR,,0.00,WeatherDisplay:10.37,2013-01-02 14:55:00,
2013-01-02 10:01:00,69.2,67.1,30.06,SSW,195,6.6,9.2,93,0.00,CLR,,0.00,WeatherDisplay:10.37,2013-01-02 15:01:00,
2013-01-02 10:06:00,69.4,67.3,30.06,SSW,208,2.5,5.0,93,0.00,CLR,,0.00,WeatherDisplay:10.37,2013-01-02 15:06:00,
2013-01-02 10:11:00,69.5,67.1,30.06,South,182,6.2,9.2,92,0.00,CLR,,0.00,WeatherDisplay:10.37,2013-01-02 15:11:00,
2013-01-02 10:16:00,69.9,67.5,30.06,SSW,203,5.9,8.1,92,0.00,CLR,,0.00,WeatherDisplay:10.37,2013-01-02 15:16:00,
2013-01-02 10:21:00,70.7,67.9,30.05,SSW,198,6.2,10.4,91,0.00,CLR,,0.00,WeatherDisplay:10.37,2013-01-02 15:21:00,
2013-01-02 10:26:00,71.1,68.0,30.06,South,191,5.8,8.1,90,0.00,CLR,,0.00,WeatherDisplay:10.37,2013-01-02 15:26:00,
2013-01-02 10:31:00,71.5,68.1,30.06,SSW,204,5.3,6.9,89,0.00,CLR,,0.00,WeatherDisplay:10.37,2013-01-02 15:31:00,
2013-01-02 10:36:00,71.7,68.0,30.05,SE,129,6.6,10.4,88,0.00,CLR,,0.00,WeatherDisplay:10.37,2013-01-02 15:36:00,
2013-01-02 10:41:00,72.1,68.0,30.05,SSE,150,5.7,10.4,87,0.00,CLR,,0.00,WeatherDisplay:10.37,2013-01-02 15:41:00,
2013-01-02 10:46:00,72.3,68.2,30.05,SE,144,5.9,9.2,87,0.00,CLR,,0.00,WeatherDisplay:10.37,2013-01-02 15:46:00,
2013-01-02 10:51:00,72.8,68.4,30.05,SW,228,4.2,6.9,86,0.00,CLR,,0.00,WeatherDisplay:10.37,2013-01-02 15:51:00,
2013-01-02 10:56:00,73.0,68.2,30.05,SSW,208,5.8,10.0,85,0.00,CLR,,0.00,WeatherDisplay:10.37,2013-01-02 15:56:00,
2013-01-02 11:01:00,73.2,68.4,30.05,SSE,165,5.4,9.2,85,0.00,CLR,,0.00,WeatherDisplay:10.37,2013-01-02 16:01:00,
2013-01-02 11:06:00,73.6,68.8,30.05,SSW,200,2.6,5.8,85,0.00,CLR,,0.00,WeatherDisplay:10.37,2013-01-02 16:06:00,
2013-01-02 11:11:00,73.9,68.4,30.04,SSW,208,6.0,11.5,83,0.00,CLR,,0.00,WeatherDisplay:10.37,2013-01-02 16:11:00,
2013-01-02 11:16:00,73.6,68.5,30.04,SW,222,5.1,6.9,84,0.00,CLR,,0.00,WeatherDisplay:10.37,2013-01-02 16:16:00,
2013-01-02 11:21:00,73.5,68.4,30.04,SSW,205,6.6,9.2,84,0.00,CLR,,0.00,WeatherDisplay:10.37,2013-01-02 16:21:00,
2013-01-02 11:26:00,73.6,68.5,30.04,SSW,193,5.2,9.2,84,0.00,CLR,,0.00,WeatherDisplay:10.37,2013-01-02 16:26:00,
2013-01-02 11:31:00,74.0,68.9,30.04,SSW,193,3.8,6.9,84,0.00,CLR,,0.00,WeatherDisplay:10.37,2013-01-02 16:31:00,
2013-01-02 11:36:00,74.4,68.5,30.04,SE,139,5.3,9.2,82,0.00,CLR,,0.00,WeatherDisplay:10.37,2013-01-02 16:36:00,
2013-01-02 11:41:00,74.2,68.3,30.03,SSE,155,6.2,10.4,82,0.00,CLR,,0.00,WeatherDisplay:10.37,2013-01-02 16:41:00,
2013-01-02 11:46:00,74.1,68.3,30.03,SE,132,7.5,11.5,82,0.00,CLR,,0.00,WeatherDisplay:10.37,2013-01-02 16:46:00,
2013-01-02 11:51:00,74.2,68.3,30.03,SSW,203,3.6,6.0,82,0.00,CLR,,0.00,WeatherDisplay:10.37,2013-01-02 16:51:00,
2013-01-02 11:56:00,74.2,68.3,30.03,SSE,162,5.5,10.4,82,0.00,CLR,,0.00,WeatherDisplay:10.37,2013-01-02 16:56:00,
2013-01-02 12:01:00,74.4,68.5,30.03,SSW,197,3.8,6.9,82,0.00,CLR,,0.00,WeatherDisplay:10.37,2013-01-02 17:01:00,
2013-01-02 12:06:00,74.2,68.7,30.03,SSW,207,2.9,5.8,83,0.00,CLR,,0.00,WeatherDisplay:10.37,2013-01-02 17:06:00,
2013-01-02 12:11:00,74.3,68.4,30.03,SE,140,5.8,10.4,82,0.00,CLR,,0.00,WeatherDisplay:10.37,2013-01-02 17:11:00,
2013-01-02 12:16:00,74.4,68.5,30.02,South,184,3.5,11.5,82,0.00,CLR,,0.00,WeatherDisplay:10.37,2013-01-02 17:16:00,
2013-01-02 12:21:00,74.6,68.7,30.02,SW,216,5.8,11.0,82,0.00,CLR,,0.00,WeatherDisplay:10.37,2013-01-02 17:21:00,
2013-01-02 12:26:00,74.2,68.7,30.02,SW,228,5.2,11.5,83,0.00,CLR,,0.00,WeatherDisplay:10.37,2013-01-02 17:26:00,
2013-01-02 12:31:00,74.4,68.5,30.01,SSE,148,6.5,11.5,82,0.00,CLR,,0.00,WeatherDisplay:10.37,2013-01-02 17:31:00,
2013-01-02 12:36:00,74.1,67.9,30.02,SSE,150,9.0,11.5,81,0.00,CLR,,0.00,WeatherDisplay:10.37,2013-01-02 17:36:00,
2013-01-02 12:41:00,73.9,68.1,30.01,SSW,212,4.5,6.9,82,0.00,CLR,,0.00,WeatherDisplay:10.37,2013-01-02 17:41:00,
2013-01-02 12:46:00,74.5,68.6,30.01,SSW,197,4.8,8.1,82,0.00,CLR,,0.00,WeatherDisplay:10.37,2013-01-02 17:46:00,
2013-01-02 12:51:00,74.6,68.4,30.01,SW,215,3.6,6.0,81,0.00,CLR,,0.00,WeatherDisplay:10.37,2013-01-02 17:51:00,
2013-01-02 12:56:00,75.0,68.4,30.00,West,278,4.1,6.9,80,0.00,CLR,,0.00,WeatherDisplay:10.37,2013-01-02 17:56:00,
2013-01-02 13:01:00,74.9,67.9,30.00,SW,218,7.3,10.4,79,0.00,CLR,,0.00,WeatherDisplay:10.37,2013-01-02 18:01:00,
2013-01-02 14:36:00,75.1,68.1,29.99,SSW,201,5.4,11.5,79,0.00,CLR,,0.00,WeatherDisplay:10.37,2013-01-02 19:36:00,
2013-01-02 14:41:00,75.1,68.5,29.98,SSW,204,2.5,3.5,80,0.00,CLR,,0.00,WeatherDisplay:10.37,2013-01-02 19:41:00,
2013-01-02 14:46:00,75.2,68.2,29.98,WSW,239,3.2,5.8,79,0.00,CLR,,0.00,WeatherDisplay:10.37,2013-01-02 19:46:00,
2013-01-02 14:51:00,75.0,67.7,29.98,SW,220,2.6,5.8,78,0.00,CLR,,0.00,WeatherDisplay:10.37,2013-01-02 19:51:00,
2013-01-02 14:56:00,75.1,67.8,29.99,South,179,2.3,3.5,78,0.00,CLR,,0.00,WeatherDisplay:10.37,2013-01-02 19:56:00,
2013-01-02 15:01:00,75.3,68.0,29.98,SSW,201,2.9,5.8,78,0.00,CLR,,0.00,WeatherDisplay:10.37,2013-01-02 20:01:00,
2013-01-02 15:06:00,75.1,67.8,29.98,SE,131,3.4,6.9,78,0.00,CLR,,0.00,WeatherDisplay:10.37,2013-01-02 20:06:00,
2013-01-02 15:11:00,75.1,67.8,29.98,South,179,4.5,6.9,78,0.00,CLR,,0.00,WeatherDisplay:10.37,2013-01-02 20:11:00,
2013-01-02 15:16:00,75.3,67.6,29.98,SSW,193,4.3,6.9,77,0.00,CLR,,0.00,WeatherDisplay:10.37,2013-01-02 20:16:00,
2013-01-02 15:21:00,74.9,67.6,29.99,SSW,204,4.6,5.8,78,0.00,CLR,,0.00,WeatherDisplay:10.37,2013-01-02 20:21:00,
2013-01-02 15:26:00,75.0,68.0,29.99,SSE,150,2.8,3.5,79,0.00,CLR,,0.00,WeatherDisplay:10.37,2013-01-02 20:26:00,
2013-01-02 15:31:00,75.2,67.9,29.99,South,189,3.5,4.6,78,0.00,CLR,,0.00,WeatherDisplay:10.37,2013-01-02 20:31:00,
2013-01-02 15:36:00,75.0,67.7,29.99,South,191,4.2,6.9,78,0.00,CLR,,0.00,WeatherDisplay:10.37,2013-01-02 20:36:00,
2013-01-02 15:41:00,75.0,67.7,29.99,SW,215,3.6,7.0,78,0.00,CLR,,0.00,WeatherDisplay:10.37,2013-01-02 20:41:00,
2013-01-02 15:46:00,75.0,67.7,29.99,SW,218,2.1,5.0,78,0.00,CLR,,0.00,WeatherDisplay:10.37,2013-01-02 20:46:00,
2013-01-02 15:51:00,74.9,67.9,29.99,SSW,203,4.3,5.8,79,0.00,CLR,,0.00,WeatherDisplay:10.37,2013-01-02 20:51:00,
2013-01-02 15:56:00,74.9,68.3,29.99,SE,145,0.0,3.5,80,0.00,CLR,,0.00,WeatherDisplay:10.37,2013-01-02 20:56:00,
2013-01-02 16:01:00,75.0,67.7,29.99,SW,236,2.1,4.6,78,0.00,CLR,,0.00,WeatherDisplay:10.37,2013-01-02 21:01:00,
2013-01-02 16:06:00,74.7,67.8,29.99,South,190,3.3,4.6,79,0.00,CLR,,0.00,WeatherDisplay:10.37,2013-01-02 21:06:00,
2013-01-02 16:11:00,74.3,68.1,29.99,SSW,205,1.4,3.5,81,0.00,CLR,,0.00,WeatherDisplay:10.37,2013-01-02 21:11:00,
2013-01-02 16:16:00,74.5,68.3,29.99,SW,233,1.7,3.5,81,0.00,CLR,,0.00,WeatherDisplay:10.37,2013-01-02 21:16:00,
2013-01-02 16:21:00,74.3,68.1,30.00,WSW,253,1.3,3.5,81,0.00,CLR,,0.00,WeatherDisplay:10.37,2013-01-02 21:21:00,
2013-01-02 16:26:00,74.1,67.9,29.99,West,260,1.6,3.5,81,0.00,CLR,,0.00,WeatherDisplay:10.37,2013-01-02 21:26:00,
2013-01-02 16:31:00,73.8,67.2,29.99,SW,236,2.5,5.8,80,0.00,CLR,,0.00,WeatherDisplay:10.37,2013-01-02 21:31:00,
2013-01-02 16:36:00,73.7,67.5,30.00,WNW,284,0.4,1.1,81,0.00,CLR,,0.00,WeatherDisplay:10.37,2013-01-02 21:36:00,
2013-01-02 16:41:00,73.8,67.2,30.00,SSW,197,1.8,4.0,80,0.00,CLR,,0.00,WeatherDisplay:10.37,2013-01-02 21:41:00,
2013-01-02 16:46:00,73.6,67.8,30.00,SW,231,2.0,3.5,82,0.00,CLR,,0.00,WeatherDisplay:10.37,2013-01-02 21:46:00,
2013-01-02 16:51:00,73.1,67.3,29.99,SW,235,0.3,2.3,82,0.00,CLR,,0.00,WeatherDisplay:10.37,2013-01-02 21:51:00,
2013-01-02 16:56:00,72.7,67.2,29.99,SSW,204,0.7,2.3,83,0.00,CLR,,0.00,WeatherDisplay:10.37,2013-01-02 21:56:00,
2013-01-02 17:01:00,72.5,67.0,29.99,SSW,203,0.2,1.1,83,0.00,CLR,,0.00,WeatherDisplay:10.37,2013-01-02 22:01:00,
2013-01-02 17:06:00,72.2,67.1,29.99,SSW,194,1.3,2.3,84,0.00,CLR,,0.00,WeatherDisplay:10.37,2013-01-02 22:06:00,
2013-01-02 17:11:00,72.0,66.9,30.00,SW,226,1.4,3.5,84,0.00,CLR,,0.00,WeatherDisplay:10.37,2013-01-02 22:11:00,
2013-01-02 17:16:00,71.8,67.0,30.00,West,264,0.1,0.0,85,0.00,CLR,,0.00,WeatherDisplay:10.37,2013-01-02 22:16:00,
2013-01-02 17:21:00,71.7,66.9,30.00,SW,214,0.3,1.1,85,0.00,CLR,,0.00,WeatherDisplay:10.37,2013-01-02 22:21:00,
2013-01-02 17:26:00,71.5,66.8,30.00,SW,231,0.0,1.0,85,0.00,CLR,,0.00,WeatherDisplay:10.37,2013-01-02 22:26:00,
2013-01-02 17:31:00,71.3,66.6,30.00,SW,218,0.0,0.0,85,0.00,CLR,,0.00,WeatherDisplay:10.37,2013-01-02 22:31:00,
2013-01-02 17:36:00,71.0,66.6,30.00,SW,226,0.4,1.1,86,0.00,CLR,,0.00,WeatherDisplay:10.37,2013-01-02 22:36:00,
2013-01-02 17:41:00,70.7,66.3,30.00,SW,232,0.0,0.0,86,0.00,CLR,,0.00,WeatherDisplay:10.37,2013-01-02 22:41:00,
2013-01-02 17:46:00,70.5,66.1,30.00,SW,229,0.0,0.0,86,0.00,CLR,,0.00,WeatherDisplay:10.37,2013-01-02 22:46:00,
2013-01-02 17:51:00,70.2,66.1,30.00,SW,218,0.1,1.1,87,0.00,CLR,,0.00,WeatherDisplay:10.37,2013-01-02 22:51:00,
2013-01-02 17:56:00,70.0,66.3,30.00,SW,222,0.4,1.1,88,0.00,CLR,,0.00,WeatherDisplay:10.37,2013-01-02 22:56:00,
2013-01-02 18:01:00,69.8,66.1,30.00,SW,224,0.4,1.1,88,0.00,CLR,,0.00,WeatherDisplay:10.37,2013-01-02 23:01:00,
2013-01-02 18:06:00,69.5,66.1,30.01,South,180,0.0,0.0,89,0.00,CLR,,0.00,WeatherDisplay:10.37,2013-01-02 23:06:00,
2013-01-02 18:11:00,69.3,65.9,30.01,South,190,0.2,1.1,89,0.00,CLR,,0.00,WeatherDisplay:10.37,2013-01-02 23:11:00,
2013-01-02 18:16:00,69.1,66.4,30.01,South,180,0.2,1.1,91,0.00,CLR,,0.00,WeatherDisplay:10.37,2013-01-02 23:16:00,
2013-01-02 18:21:00,68.9,66.5,30.01,SSE,153,1.4,2.3,92,0.00,CLR,,0.00,WeatherDisplay:10.37,2013-01-02 23:21:00,
2013-01-02 18:26:00,68.6,66.5,30.01,South,190,1.2,2.3,93,0.00,CLR,,0.00,WeatherDisplay:10.37,2013-01-02 23:26:00,
2013-01-02 18:31:00,68.4,66.3,30.01,SSE,160,1.6,2.3,93,0.00,CLR,,0.00,WeatherDisplay:10.37,2013-01-02 23:31:00,
2013-01-02 18:36:00,68.2,66.4,30.01,SE,136,1.9,3.5,94,0.00,CLR,,0.00,WeatherDisplay:10.37,2013-01-02 23:36:00,
2013-01-02 18:41:00,68.0,66.2,30.01,SSE,167,1.0,2.3,94,0.00,CLR,,0.00,WeatherDisplay:10.37,2013-01-02 23:41:00,
2013-01-02 18:46:00,67.8,66.3,30.01,SW,218,1.1,3.5,95,0.00,CLR,,0.00,WeatherDisplay:10.37,2013-01-02 23:46:00,
2013-01-02 18:51:00,67.6,66.1,30.01,SSE,158,0.4,2.0,95,0.00,CLR,,0.00,WeatherDisplay:10.37,2013-01-02 23:51:00,
2013-01-02 18:56:00,67.5,66.3,30.01,SSW,200,0.6,2.3,96,0.00,CLR,,0.00,WeatherDisplay:10.37,2013-01-02 23:56:00,
2013-01-02 19:01:00,67.4,66.2,30.02,SW,236,0.0,0.0,96,0.00,CLR,,0.00,WeatherDisplay:10.37,2013-01-03 00:01:00,
2013-01-02 19:06:00,67.3,66.1,30.02,South,184,0.0,0.0,96,0.00,CLR,,0.00,WeatherDisplay:10.37,2013-01-03 00:06:00,
2013-01-02 19:11:00,67.2,66.0,30.02,SW,217,0.8,2.3,96,0.00,CLR,,0.00,WeatherDisplay:10.37,2013-01-03 00:11:00,
2013-01-02 19:16:00,67.0,65.8,30.02,SW,224,0.4,2.3,96,0.00,CLR,,0.00,WeatherDisplay:10.37,2013-01-03 00:16:00,
2013-01-02 19:21:00,66.9,65.7,30.02,SSW,203,0.5,1.1,96,0.00,CLR,,0.00,WeatherDisplay:10.37,2013-01-03 00:21:00,
2013-01-02 19:26:00,66.8,65.6,30.02,SW,224,0.3,2.3,96,0.00,CLR,,0.00,WeatherDisplay:10.37,2013-01-03 00:26:00,
2013-01-02 19:31:00,66.7,65.8,30.02,SSW,201,0.0,1.1,97,0.00,CLR,,0.00,WeatherDisplay:10.37,2013-01-03 00:31:00,
2013-01-02 19:37:00,66.6,65.7,30.02,SSW,201,0.0,0.0,97,0.00,CLR,,0.00,WeatherDisplay:10.37,2013-01-03 00:37:00,
2013-01-02 19:42:00,66.6,65.7,30.02,SSW,200,0.0,0.0,97,0.00,CLR,,0.00,WeatherDisplay:10.37,2013-01-03 00:42:00,
2013-01-02 19:47:00,66.5,65.6,30.02,SSW,200,0.0,0.0,97,0.00,CLR,,0.00,WeatherDisplay:10.37,2013-01-03 00:47:00,
2013-01-02 19:52:00,66.5,65.6,30.03,SSE,160,0.0,0.0,97,0.00,CLR,,0.00,WeatherDisplay:10.37,2013-01-03 00:52:00,
2013-01-02 19:57:00,66.4,65.5,30.03,South,175,0.0,0.0,97,0.00,CLR,,0.00,WeatherDisplay:10.37,2013-01-03 00:57:00,
2013-01-02 20:02:00,66.3,65.4,30.03,South,174,0.0,0.0,97,0.00,,,0.00,WeatherDisplay:10.37,2013-01-03 01:02:00,
2013-01-02 20:07:00,66.2,65.3,30.03,SSW,208,0.0,0.0,97,0.00,,,0.00,WeatherDisplay:10.37,2013-01-03 01:07:00,
2013-01-02 20:12:00,66.2,65.3,30.03,SSW,210,0.0,0.0,97,0.00,,,0.00,WeatherDisplay:10.37,2013-01-03 01:12:00,
2013-01-02 20:17:00,66.1,65.2,30.03,SSW,210,0.0,0.0,97,0.00,,,0.00,WeatherDisplay:10.37,2013-01-03 01:17:00,
2013-01-02 20:22:00,66.0,65.1,30.03,SSW,209,0.0,0.0,97,0.00,,,0.00,WeatherDisplay:10.37,2013-01-03 01:22:00,
2013-01-02 20:27:00,65.9,65.0,30.03,SSW,209,0.0,0.0,97,0.00,,,0.00,WeatherDisplay:10.37,2013-01-03 01:27:00,
2013-01-02 20:32:00,65.7,64.8,30.04,SW,214,0.0,1.1,97,0.00,,,0.00,WeatherDisplay:10.37,2013-01-03 01:32:00,
2013-01-02 20:37:00,65.5,64.6,30.04,SSW,210,0.0,0.0,97,0.00,,,0.00,WeatherDisplay:10.37,2013-01-03 01:37:00,
2013-01-02 20:42:00,65.4,64.5,30.04,SSW,209,0.0,0.0,97,0.00,,,0.00,WeatherDisplay:10.37,2013-01-03 01:42:00,
2013-01-02 20:47:00,65.3,64.4,30.04,SSW,207,0.1,1.1,97,0.00,,,0.00,WeatherDisplay:10.37,2013-01-03 01:47:00,
2013-01-02 20:52:00,65.3,64.4,30.04,SSW,207,0.0,0.0,97,0.00,,,0.00,WeatherDisplay:10.37,2013-01-03 01:52:00,
2013-01-02 20:57:00,65.2,64.6,30.04,SSW,207,0.0,0.0,98,0.00,,,0.00,WeatherDisplay:10.37,2013-01-03 01:57:00,
2013-01-02 21:02:00,65.2,64.6,30.04,SSW,201,0.0,0.0,98,0.00,,,0.00,WeatherDisplay:10.37,2013-01-03 02:02:00,
2013-01-02 21:07:00,64.9,64.0,30.04,SW,217,0.1,1.1,97,0.00,,,0.00,WeatherDisplay:10.37,2013-01-03 02:07:00,
2013-01-02 21:12:00,64.8,63.9,30.04,SW,214,0.0,1.1,97,0.00,,,0.00,WeatherDisplay:10.37,2013-01-03 02:12:00,
2013-01-02 21:17:00,64.6,64.0,30.05,SW,214,0.0,0.0,98,0.00,,,0.00,WeatherDisplay:10.37,2013-01-03 02:17:00,
2013-01-02 21:22:00,64.6,64.0,30.05,SW,214,0.0,0.0,98,0.00,,,0.00,WeatherDisplay:10.37,2013-01-03 02:22:00,
2013-01-02 21:27:00,64.5,63.9,30.05,SW,214,0.0,0.0,98,0.00,,,0.00,WeatherDisplay:10.37,2013-01-03 02:27:00,
2013-01-02 21:32:00,64.4,63.8,30.05,SSW,209,0.0,0.0,98,0.00,,,0.00,WeatherDisplay:10.37,2013-01-03 02:32:00,
2013-01-02 21:37:00,64.3,63.7,30.05,SSW,195,0.0,0.0,98,0.00,,,0.00,WeatherDisplay:10.37,2013-01-03 02:37:00,
2013-01-02 21:42:00,64.2,63.6,30.05,SSE,162,0.0,0.0,98,0.00,,,0.00,WeatherDisplay:10.37,2013-01-03 02:42:00,
2013-01-02 21:47:00,64.1,63.5,30.05,SSE,166,0.0,0.0,98,0.00,,,0.00,WeatherDisplay:10.37,2013-01-03 02:47:00,
2013-01-02 21:52:00,64.1,63.5,30.05,SSE,166,0.0,0.0,98,0.00,,,0.00,WeatherDisplay:10.37,2013-01-03 02:52:00,
2013-01-02 21:57:00,64.0,63.4,30.05,SW,218,0.0,0.0,98,0.00,,,0.00,WeatherDisplay:10.37,2013-01-03 02:57:00,
2013-01-02 22:02:00,64.0,63.4,30.06,SW,217,0.1,1.1,98,0.00,,,0.00,WeatherDisplay:10.37,2013-01-03 03:02:00,
2013-01-02 22:07:00,63.8,63.2,30.06,South,173,0.2,1.1,98,0.00,,,0.00,WeatherDisplay:10.37,2013-01-03 03:07:00,
2013-01-02 22:12:00,63.7,63.1,30.06,SSW,212,0.0,0.0,98,0.00,,,0.00,WeatherDisplay:10.37,2013-01-03 03:12:00,
2013-01-02 22:17:00,63.7,63.1,30.06,SSW,212,0.0,0.0,98,0.00,,,0.00,WeatherDisplay:10.37,2013-01-03 03:17:00,
2013-01-02 22:22:00,63.7,63.1,30.06,SSW,212,0.0,0.0,98,0.00,,,0.00,WeatherDisplay:10.37,2013-01-03 03:22:00,
2013-01-02 22:27:00,63.8,63.2,30.06,SSW,212,0.0,0.0,98,0.00,,,0.00,WeatherDisplay:10.37,2013-01-03 03:27:00,
2013-01-02 22:32:00,63.7,63.1,30.06,SW,231,0.0,1.1,98,0.00,,,0.00,WeatherDisplay:10.37,2013-01-03 03:32:00,
2013-01-02 22:38:00,63.5,62.9,30.05,SSW,208,0.2,2.3,98,0.00,,,0.00,WeatherDisplay:10.37,2013-01-03 03:38:00,
2013-01-02 22:43:00,63.5,62.9,30.05,SSW,201,0.0,0.0,98,0.00,,,0.00,WeatherDisplay:10.37,2013-01-03 03:43:00,
2013-01-02 22:48:00,63.5,62.9,30.05,SSE,167,0.3,1.1,98,0.00,,,0.00,WeatherDisplay:10.37,2013-01-03 03:48:00,
2013-01-02 22:53:00,63.5,62.9,30.05,SSE,167,0.0,0.0,98,0.00,,,0.00,WeatherDisplay:10.37,2013-01-03 03:53:00,
2013-01-02 22:58:00,63.6,63.0,30.05,SSE,167,0.0,0.0,98,0.00,,,0.00,WeatherDisplay:10.37,2013-01-03 03:58:00,
2013-01-02 23:03:00,63.5,62.9,30.05,South,171,1.0,1.1,98,0.00,,,0.00,WeatherDisplay:10.37,2013-01-03 04:03:00,
2013-01-02 23:08:00,63.4,62.8,30.05,SSE,165,1.6,2.3,98,0.00,,,0.00,WeatherDisplay:10.37,2013-01-03 04:08:00,
2013-01-02 23:13:00,63.2,62.6,30.05,SSW,200,0.0,0.0,98,0.00,,,0.00,WeatherDisplay:10.37,2013-01-03 04:13:00,
2013-01-02 23:18:00,63.1,62.5,30.05,SSW,200,0.0,0.0,98,0.00,,,0.00,WeatherDisplay:10.37,2013-01-03 04:18:00,
2013-01-02 23:23:00,63.1,62.5,30.05,SW,222,0.0,0.0,98,0.00,,,0.00,WeatherDisplay:10.37,2013-01-03 04:23:00,
2013-01-02 23:28:00,63.1,62.5,30.05,SSE,162,0.0,0.0,98,0.00,,,0.00,WeatherDisplay:10.37,2013-01-03 04:28:00,
2013-01-02 23:33:00,63.0,62.4,30.05,ESE,118,0.3,1.0,98,0.00,,,0.00,WeatherDisplay:10.37,2013-01-03 04:33:00,
2013-01-02 23:38:00,62.8,62.2,30.05,ESE,119,0.0,0.0,98,0.00,,,0.00,WeatherDisplay:10.37,2013-01-03 04:38:00,
2013-01-02 23:43:00,62.8,62.2,30.05,South,169,0.8,1.1,98,0.00,,,0.00,WeatherDisplay:10.37,2013-01-03 04:43:00,
2013-01-02 23:48:00,62.6,62.0,30.04,SSW,204,0.3,2.3,98,0.00,,,0.00,WeatherDisplay:10.37,2013-01-03 04:48:00,
2013-01-02 23:53:00,62.5,61.9,30.05,SSE,162,0.9,2.3,98,0.00,,,0.00,WeatherDisplay:10.37,2013-01-03 04:53:00,
2013-01-02 23:58:00,62.4,61.8,30.05,South,190,0.7,1.1,98,0.00,,,0.00,WeatherDisplay:10.37,2013-01-03 04:58:00,